Time;durP1;ratioP1;P1;durP2;ratioP2;P2;SDS_P1;SDS_P2;PMS_P1;PMS_P2;Temp;Humidity;BMP_temperature;BMP_pressure;BME280_temperature;BME280_humidity;BME280_pressure;Samples;Min_cycle;Max_cycle;Signal;HPM_P1;HPM_P2
2024/01/04 00:01:20;;;;;;;;;;;7.90;99.90;;;;;;5023504;28;20137;-69
2024/01/04 00:03:46;;;;;;;;;;;7.80;99.90;;;;;;5023815;28;19945;-69
2024/01/04 00:06:11;;;;;;;;;;;7.90;99.90;;;;;;5030671;28;19919;-69
2024/01/04 00:08:37;;;;;;;;;;;7.80;99.90;;;;;;5023228;28;19949;-69
2024/01/04 00:11:06;;;;;;;;;;;7.80;99.90;;;;;;5042205;28;19913;-69
2024/01/04 00:13:32;;;;;;;;;;;7.80;99.90;;;;;;5042851;28;20008;-69
2024/01/04 00:15:57;;;;;;;;;;;7.90;99.90;;;;;;5042499;28;20004;-69
2024/01/04 00:18:23;;;;;;;;;;;7.90;99.90;;;;;;5025339;28;19920;-69
2024/01/04 00:20:48;;;;;;;;;;;7.80;99.90;;;;;;5030913;28;20402;-69
2024/01/04 00:23:14;;;;;;;;;;;7.80;99.90;;;;;;5031331;28;20004;-69
2024/01/04 00:25:39;;;;;;;;;;;7.90;99.90;;;;;;5023283;28;19913;-69
2024/01/04 00:28:05;;;;;;;;;;;7.80;99.90;;;;;;5026168;28;20692;-69
2024/01/04 00:30:30;;;;;;;;;;;7.90;99.90;;;;;;5006718;28;20009;-69
2024/01/04 00:32:56;;;;;;;;;;;7.80;99.90;;;;;;5024639;28;19913;-69
2024/01/04 00:35:22;;;;;;;;;;;7.90;99.90;;;;;;5042747;28;19965;-69
2024/01/04 00:37:48;;;;;;;;;;;7.90;99.90;;;;;;5034289;28;20023;-69
2024/01/04 00:40:13;;;;;;;;;;;7.90;99.90;;;;;;5037993;28;19920;-69
2024/01/04 00:42:39;;;;;;;;;;;7.80;99.90;;;;;;5031117;28;19913;-69
2024/01/04 00:45:05;;;;;;;;;;;7.80;99.90;;;;;;5022687;28;19966;-69
2024/01/04 00:47:30;;;;;;;;;;;7.80;99.90;;;;;;5029632;28;19948;-69
2024/01/04 00:49:56;;;;;;;;;;;7.80;99.90;;;;;;5025674;28;19909;-69
2024/01/04 00:52:21;;;;;;;;;;;7.80;99.90;;;;;;5028799;28;19921;-69
2024/01/04 00:54:47;;;;;;;;;;;7.80;99.90;;;;;;5022905;28;19948;-69
2024/01/04 00:57:12;;;;;;;;;;;7.80;99.90;;;;;;5019923;28;20337;-69
2024/01/04 00:59:38;;;;;;;;;;;7.80;99.90;;;;;;5023843;28;19913;-69
2024/01/04 01:02:03;;;;;;;;;;;7.80;99.90;;;;;;5024611;28;19940;-69
2024/01/04 01:04:29;;;;;;;;;;;7.80;99.90;;;;;;5027689;28;19913;-69
2024/01/04 01:06:54;;;;;;;;;;;7.90;99.90;;;;;;5004150;28;20537;-69
2024/01/04 01:09:20;;;;;;;;;;;7.80;99.90;;;;;;5009662;28;19959;-69
2024/01/04 01:11:45;;;;;;;;;;;7.90;99.90;;;;;;5035879;28;19954;-69
2024/01/04 01:14:11;;;;;;;;;;;7.80;99.90;;;;;;5022661;28;19915;-69
2024/01/04 01:16:36;;;;;;;;;;;7.90;99.90;;;;;;5021660;28;20549;-69
2024/01/04 01:19:02;;;;;;;;;;;7.90;99.90;;;;;;5024767;28;19913;-69
2024/01/04 01:21:28;;;;;;;;;;;7.90;99.90;;;;;;5033882;28;20012;-69
2024/01/04 01:23:53;;;;;;;;;;;7.90;99.90;;;;;;5023783;28;20646;-69
2024/01/04 01:26:19;;;;;;;;;;;7.80;99.90;;;;;;5022465;28;19920;-69
2024/01/04 01:28:44;;;;;;;;;;;7.80;99.90;;;;;;5015520;28;19909;-69
2024/01/04 01:31:10;;;;;;;;;;;7.80;99.90;;;;;;5021958;28;20289;-69
2024/01/04 01:33:36;;;;;;;;;;;7.90;99.90;;;;;;5021714;28;20320;-69
2024/01/04 01:36:02;;;;;;;;;;;7.90;99.90;;;;;;5022029;28;19913;-69
2024/01/04 01:38:28;;;;;;;;;;;7.80;99.90;;;;;;5036669;28;19957;-69
2024/01/04 01:40:53;;;;;;;;;;;7.80;99.90;;;;;;5041221;28;19917;-69
2024/01/04 01:43:19;;;;;;;;;;;7.90;99.90;;;;;;5033479;28;19922;-69
2024/01/04 01:45:45;;;;;;;;;;;7.80;99.90;;;;;;5015441;28;19919;-69
2024/01/04 01:48:13;;;;;;;;;;;7.90;99.90;;;;;;5038200;28;19913;-69
2024/01/04 01:50:39;;;;;;;;;;;7.90;99.90;;;;;;5033093;28;19923;-69
2024/01/04 01:53:04;;;;;;;;;;;7.80;99.90;;;;;;5021772;28;19913;-69
2024/01/04 01:55:30;;;;;;;;;;;7.80;99.90;;;;;;5036757;28;20391;-69
2024/01/04 01:57:56;;;;;;;;;;;7.80;99.90;;;;;;5022648;28;20372;-69
2024/01/04 02:00:22;;;;;;;;;;;7.90;99.90;;;;;;5029658;28;20013;-69
2024/01/04 02:02:48;;;;;;;;;;;7.90;99.90;;;;;;5029292;28;19913;-69
2024/01/04 02:05:14;;;;;;;;;;;7.90;99.90;;;;;;5034408;28;19924;-69
2024/01/04 02:07:40;;;;;;;;;;;7.80;99.90;;;;;;5041647;28;19912;-69
2024/01/04 02:10:06;;;;;;;;;;;7.90;99.90;;;;;;5037414;28;20392;-69
2024/01/04 02:12:32;;;;;;;;;;;7.90;99.90;;;;;;5021357;28;19999;-69
2024/01/04 02:14:57;;;;;;;;;;;7.80;99.90;;;;;;5029648;28;20007;-69
2024/01/04 02:17:24;;;;;;;;;;;7.80;99.90;;;;;;5005972;28;20596;-69
2024/01/04 02:19:50;;;;;;;;;;;7.80;99.90;;;;;;5022060;28;19952;-69
2024/01/04 02:22:17;;;;;;;;;;;7.90;99.90;;;;;;5036690;28;20025;-69
2024/01/04 02:24:43;;;;;;;;;;;7.80;99.90;;;;;;5029615;28;20369;-69
2024/01/04 02:27:08;;;;;;;;;;;7.80;99.90;;;;;;5041320;28;20001;-69
2024/01/04 02:29:34;;;;;;;;;;;7.80;99.90;;;;;;5042864;28;20394;-69
2024/01/04 02:31:59;;;;;;;;;;;7.80;99.90;;;;;;5031414;28;19917;-69
2024/01/04 02:34:25;;;;;;;;;;;7.80;99.90;;;;;;5024925;28;19917;-69
2024/01/04 02:36:50;;;;;;;;;;;7.80;99.90;;;;;;5032674;28;19924;-69
2024/01/04 02:39:16;;;;;;;;;;;7.90;99.90;;;;;;5024751;28;19960;-69
2024/01/04 02:41:41;;;;;;;;;;;7.80;99.90;;;;;;5024487;28;20284;-69
2024/01/04 02:44:07;;;;;;;;;;;7.90;99.90;;;;;;5040872;28;19913;-69
2024/01/04 02:46:32;;;;;;;;;;;7.80;99.90;;;;;;5024568;28;19965;-69
2024/01/04 02:48:58;;;;;;;;;;;7.90;99.90;;;;;;5034841;28;19920;-69
2024/01/04 02:51:23;;;;;;;;;;;7.90;99.90;;;;;;5045428;28;20016;-69
2024/01/04 02:53:49;;;;;;;;;;;7.80;99.90;;;;;;5041330;28;20003;-69
2024/01/04 02:56:14;;;;;;;;;;;7.80;99.90;;;;;;5036458;28;19909;-69
2024/01/04 02:58:40;;;;;;;;;;;7.80;99.90;;;;;;5028446;28;19919;-69
2024/01/04 03:01:05;;;;;;;;;;;7.80;99.90;;;;;;5006473;28;20477;-69
2024/01/04 03:03:31;;;;;;;;;;;7.80;99.90;;;;;;5031341;28;20011;-69
2024/01/04 03:05:56;;;;;;;;;;;7.80;99.90;;;;;;5034246;28;20536;-69
2024/01/04 03:08:22;;;;;;;;;;;7.80;99.90;;;;;;5024400;28;19917;-69
2024/01/04 03:10:47;;;;;;;;;;;7.80;99.90;;;;;;5036913;28;19912;-69
2024/01/04 03:13:13;;;;;;;;;;;7.80;99.90;;;;;;5028450;28;20336;-69
2024/01/04 03:15:38;;;;;;;;;;;7.80;99.90;;;;;;5044123;28;19947;-69
2024/01/04 03:18:04;;;;;;;;;;;7.80;99.90;;;;;;5028921;28;19920;-69
2024/01/04 03:20:29;;;;;;;;;;;7.80;99.90;;;;;;5023995;28;19913;-69
2024/01/04 03:22:55;;;;;;;;;;;7.80;99.90;;;;;;5033604;28;19913;-69
2024/01/04 03:25:21;;;;;;;;;;;7.80;99.90;;;;;;5043847;28;19942;-69
2024/01/04 03:27:46;;;;;;;;;;;7.80;99.90;;;;;;5034793;28;19924;-69
2024/01/04 03:30:12;;;;;;;;;;;7.80;99.90;;;;;;5026492;28;19944;-69
2024/01/04 03:32:37;;;;;;;;;;;7.80;99.90;;;;;;5023890;28;19952;-69
2024/01/04 03:35:04;;;;;;;;;;;7.80;99.90;;;;;;5023827;28;19989;-69
2024/01/04 03:37:30;;;;;;;;;;;7.80;99.90;;;;;;5030450;28;19913;-69
2024/01/04 03:39:55;;;;;;;;;;;7.80;99.90;;;;;;5030256;28;20059;-69
2024/01/04 03:42:21;;;;;;;;;;;7.80;99.90;;;;;;5031865;28;19917;-69
2024/01/04 03:44:46;;;;;;;;;;;7.80;99.90;;;;;;5023544;28;19925;-69
2024/01/04 03:47:12;;;;;;;;;;;7.80;99.90;;;;;;5023743;28;20349;-69
2024/01/04 03:49:38;;;;;;;;;;;7.80;99.90;;;;;;5038906;27;19949;-69
2024/01/04 03:52:03;;;;;;;;;;;7.80;99.90;;;;;;5026164;28;20674;-69
2024/01/04 03:54:29;;;;;;;;;;;7.80;99.90;;;;;;5035236;28;19917;-69
2024/01/04 03:56:54;;;;;;;;;;;7.80;99.90;;;;;;5016825;28;19940;-69
2024/01/04 03:59:20;;;;;;;;;;;7.80;99.90;;;;;;5029998;28;20009;-69
2024/01/04 04:01:46;;;;;;;;;;;7.80;99.90;;;;;;5005617;28;20273;-69
2024/01/04 04:04:12;;;;;;;;;;;7.80;99.90;;;;;;5031572;28;19927;-69
2024/01/04 04:06:38;;;;;;;;;;;7.80;99.90;;;;;;5023819;28;19981;-69
2024/01/04 04:09:03;;;;;;;;;;;7.80;99.90;;;;;;5031569;28;21212;-69
2024/01/04 04:11:29;;;;;;;;;;;7.80;99.90;;;;;;5029277;28;19917;-69
2024/01/04 04:13:54;;;;;;;;;;;7.80;99.90;;;;;;5023632;28;19913;-69
2024/01/04 04:16:20;;;;;;;;;;;7.80;99.90;;;;;;5036002;28;19953;-69
2024/01/04 04:18:45;;;;;;;;;;;7.80;99.90;;;;;;5031368;28;19909;-69
2024/01/04 04:21:20;;;;;;;;;;;7.70;99.90;;;;;;5035157;28;19932;-69
2024/01/04 04:23:49;;;;;;;;;;;7.70;99.90;;;;;;5026428;28;20296;-69
2024/01/04 04:26:21;;;;;;;;;;;7.80;99.90;;;;;;5030934;28;20387;-69
2024/01/04 04:28:49;;;;;;;;;;;7.80;99.90;;;;;;5026027;28;19969;-69
2024/01/04 04:31:15;;;;;;;;;;;7.70;99.90;;;;;;5032574;28;19932;-69
2024/01/04 04:33:41;;;;;;;;;;;7.70;99.90;;;;;;5022830;28;20288;-69
2024/01/04 04:36:07;;;;;;;;;;;7.80;99.90;;;;;;5038128;28;19916;-69
2024/01/04 04:38:33;;;;;;;;;;;7.70;99.90;;;;;;5023222;28;19921;-69
2024/01/04 04:40:59;;;;;;;;;;;7.70;99.90;;;;;;5032945;28;19946;-69
2024/01/04 04:43:25;;;;;;;;;;;7.70;99.90;;;;;;5016541;28;20495;-69
2024/01/04 04:45:50;;;;;;;;;;;7.70;99.90;;;;;;5024944;28;20336;-69
2024/01/04 04:48:16;;;;;;;;;;;7.70;99.90;;;;;;5004614;28;20031;-69
2024/01/04 04:50:41;;;;;;;;;;;7.70;99.90;;;;;;5038424;28;19919;-69
2024/01/04 04:53:07;;;;;;;;;;;7.70;99.90;;;;;;5030274;28;20079;-69
2024/01/04 04:55:33;;;;;;;;;;;7.70;99.90;;;;;;5037350;28;20430;-69
2024/01/04 04:57:59;;;;;;;;;;;7.70;99.90;;;;;;5023611;28;19920;-69
2024/01/04 05:00:24;;;;;;;;;;;7.70;99.90;;;;;;5035646;28;19913;-69
2024/01/04 05:02:50;;;;;;;;;;;7.70;99.90;;;;;;5041167;28;20321;-69
2024/01/04 05:05:15;;;;;;;;;;;7.70;99.90;;;;;;5027015;28;19912;-69
2024/01/04 05:07:41;;;;;;;;;;;7.70;99.90;;;;;;5026432;28;19918;-69
2024/01/04 05:10:06;;;;;;;;;;;7.70;99.90;;;;;;5022122;28;19920;-69
2024/01/04 05:12:33;;;;;;;;;;;7.70;99.90;;;;;;5022580;28;19924;-69
2024/01/04 05:14:58;;;;;;;;;;;7.70;99.90;;;;;;5022260;28;19913;-69
2024/01/04 05:17:24;;;;;;;;;;;7.70;99.90;;;;;;5022359;28;20017;-69
2024/01/04 05:19:49;;;;;;;;;;;7.70;99.90;;;;;;5022987;28;19962;-69
2024/01/04 05:22:15;;;;;;;;;;;7.70;99.90;;;;;;5036918;28;20270;-69
2024/01/04 05:24:41;;;;;;;;;;;7.70;99.90;;;;;;5030058;28;19948;-69
2024/01/04 05:27:07;;;;;;;;;;;7.70;99.90;;;;;;5030679;28;19959;-69
2024/01/04 05:29:32;;;;;;;;;;;7.70;99.90;;;;;;5022123;28;19945;-69
2024/01/04 05:31:58;;;;;;;;;;;7.70;99.90;;;;;;5016183;28;19971;-69
2024/01/04 05:34:23;;;;;;;;;;;7.60;99.90;;;;;;5027489;28;20565;-69
2024/01/04 05:36:49;;;;;;;;;;;7.60;99.90;;;;;;5024892;28;20379;-69
2024/01/04 05:39:14;;;;;;;;;;;7.60;99.90;;;;;;5026380;28;19931;-69
2024/01/04 05:41:40;;;;;;;;;;;7.70;99.90;;;;;;5008354;28;19909;-69
2024/01/04 05:44:05;;;;;;;;;;;7.70;99.90;;;;;;5022183;28;19917;-69
2024/01/04 05:46:32;;;;;;;;;;;7.60;99.90;;;;;;5029902;28;19913;-69
2024/01/04 05:48:58;;;;;;;;;;;7.60;99.90;;;;;;5011415;28;19942;-69
2024/01/04 05:51:23;;;;;;;;;;;7.60;99.90;;;;;;5012093;28;20651;-69
2024/01/04 05:53:49;;;;;;;;;;;7.60;99.90;;;;;;5045312;27;19920;-69
2024/01/04 05:56:15;;;;;;;;;;;7.60;99.90;;;;;;5022227;28;19924;-69
2024/01/04 05:58:40;;;;;;;;;;;7.60;99.90;;;;;;5030438;28;20340;-69
2024/01/04 06:01:06;;;;;;;;;;;7.60;99.90;;;;;;5021740;28;19913;-69
2024/01/04 06:03:32;;;;;;;;;;;7.60;99.90;;;;;;5022848;28;19913;-69
2024/01/04 06:05:57;;;;;;;;;;;7.60;99.90;;;;;;5027217;28;19933;-69
2024/01/04 06:08:23;;;;;;;;;;;7.60;99.90;;;;;;5037234;28;19957;-69
2024/01/04 06:10:48;;;;;;;;;;;7.60;99.90;;;;;;5044687;28;19916;-69
2024/01/04 06:13:14;;;;;;;;;;;7.60;99.90;;;;;;5015836;28;19913;-69
2024/01/04 06:15:39;;;;;;;;;;;7.60;99.90;;;;;;5025745;28;20330;-69
2024/01/04 06:18:05;;;;;;;;;;;7.60;99.90;;;;;;5029358;28;20009;-69
2024/01/04 06:20:30;;;;;;;;;;;7.60;99.90;;;;;;5012884;28;19913;-69
2024/01/04 06:22:56;;;;;;;;;;;7.60;99.90;;;;;;5042834;28;20284;-69
2024/01/04 06:25:21;;;;;;;;;;;7.60;99.90;;;;;;5044891;28;19912;-69
2024/01/04 06:27:47;;;;;;;;;;;7.60;99.90;;;;;;5044375;28;19996;-69
2024/01/04 06:30:13;;;;;;;;;;;7.60;99.90;;;;;;5024485;28;19917;-69
2024/01/04 06:32:38;;;;;;;;;;;7.60;99.90;;;;;;5025033;28;19913;-69
2024/01/04 06:35:04;;;;;;;;;;;7.60;99.90;;;;;;5026695;28;19921;-69
2024/01/04 06:37:29;;;;;;;;;;;7.60;99.90;;;;;;5030548;28;20031;-69
2024/01/04 06:39:55;;;;;;;;;;;7.60;99.90;;;;;;5032624;28;19912;-69
2024/01/04 06:42:20;;;;;;;;;;;7.50;99.90;;;;;;5024548;28;20286;-69
2024/01/04 06:44:47;;;;;;;;;;;7.60;99.90;;;;;;5032782;28;19917;-69
2024/01/04 06:47:13;;;;;;;;;;;7.60;99.90;;;;;;5032747;28;20270;-69
2024/01/04 06:49:38;;;;;;;;;;;7.50;99.90;;;;;;5032645;28;19920;-69
2024/01/04 06:52:04;;;;;;;;;;;7.60;99.90;;;;;;5026836;28;19940;-69
2024/01/04 06:54:29;;;;;;;;;;;7.60;99.90;;;;;;5030434;28;20393;-69
2024/01/04 06:56:55;;;;;;;;;;;7.60;99.90;;;;;;5033562;28;20320;-69
2024/01/04 06:59:20;;;;;;;;;;;7.60;99.90;;;;;;5031138;28;19916;-69
2024/01/04 07:01:46;;;;;;;;;;;7.60;99.90;;;;;;5024099;28;19976;-69
2024/01/04 07:04:11;;;;;;;;;;;7.60;99.90;;;;;;5039418;28;20381;-69
2024/01/04 07:06:37;;;;;;;;;;;7.50;99.90;;;;;;5031331;28;19913;-69
2024/01/04 07:09:02;;;;;;;;;;;7.50;99.90;;;;;;5027249;28;19917;-69
2024/01/04 07:11:30;;;;;;;;;;;7.50;99.90;;;;;;5038251;28;19917;-69
2024/01/04 07:13:56;;;;;;;;;;;7.50;99.90;;;;;;5023769;28;19909;-69
2024/01/04 07:16:22;;;;;;;;;;;7.60;99.90;;;;;;5031991;28;20351;-69
2024/01/04 07:18:47;;;;;;;;;;;7.60;99.90;;;;;;5014186;28;19936;-69
2024/01/04 07:21:13;;;;;;;;;;;7.50;99.90;;;;;;5023934;28;19917;-69
2024/01/04 07:23:38;;;;;;;;;;;7.50;99.90;;;;;;5032283;28;20004;-69
2024/01/04 07:26:06;;;;;;;;;;;7.60;99.90;;;;;;5038577;27;20257;-69
2024/01/04 07:28:32;;;;;;;;;;;7.50;99.90;;;;;;5024047;28;19921;-69
2024/01/04 07:30:58;;;;;;;;;;;7.50;99.90;;;;;;5017762;28;20369;-69
2024/01/04 07:33:26;;;;;;;;;;;7.60;99.90;;;;;;5024232;28;20807;-69
2024/01/04 07:35:51;;;;;;;;;;;7.50;99.90;;;;;;5032191;28;19913;-69
2024/01/04 07:38:19;;;;;;;;;;;7.50;99.90;;;;;;5025647;28;19969;-69
2024/01/04 07:40:44;;;;;;;;;;;7.60;99.90;;;;;;5031663;28;19947;-69
2024/01/04 07:43:11;;;;;;;;;;;7.60;99.90;;;;;;5023720;28;19952;-69
2024/01/04 07:45:37;;;;;;;;;;;7.50;99.90;;;;;;5024107;28;19970;-69
2024/01/04 07:48:03;;;;;;;;;;;7.60;99.90;;;;;;5023497;28;19954;-69
2024/01/04 07:50:28;;;;;;;;;;;7.50;99.90;;;;;;5023901;28;19913;-69
2024/01/04 07:52:55;;;;;;;;;;;7.50;99.90;;;;;;5032178;28;19913;-69
2024/01/04 07:55:21;;;;;;;;;;;7.60;99.90;;;;;;5031979;28;19913;-69
2024/01/04 07:57:46;;;;;;;;;;;7.60;99.90;;;;;;5031699;28;19939;-69
2024/01/04 08:00:12;;;;;;;;;;;7.60;99.90;;;;;;5023253;28;19915;-69
2024/01/04 08:02:39;;;;;;;;;;;7.60;99.90;;;;;;5038753;28;19919;-69
2024/01/04 08:05:04;;;;;;;;;;;7.60;99.90;;;;;;5032708;28;19913;-69
2024/01/04 08:07:30;;;;;;;;;;;7.60;99.90;;;;;;5023556;28;19920;-69
2024/01/04 08:09:56;;;;;;;;;;;7.60;99.90;;;;;;5039120;27;20691;-69
2024/01/04 08:12:21;;;;;;;;;;;7.60;99.90;;;;;;5030126;28;19921;-69
2024/01/04 08:14:47;;;;;;;;;;;7.60;99.90;;;;;;5023248;28;19913;-69
2024/01/04 08:17:12;;;;;;;;;;;7.60;99.90;;;;;;5038218;28;20012;-69
2024/01/04 08:19:38;;;;;;;;;;;7.60;99.90;;;;;;5027717;28;19913;-69
2024/01/04 08:22:03;;;;;;;;;;;7.60;99.90;;;;;;5006292;28;19930;-69
2024/01/04 08:24:29;;;;;;;;;;;7.60;99.90;;;;;;5023045;28;19968;-69
2024/01/04 08:26:56;;;;;;;;;;;7.60;99.90;;;;;;5023478;28;20385;-69
2024/01/04 08:29:21;;;;;;;;;;;7.60;99.90;;;;;;5034415;28;19924;-69
2024/01/04 08:31:47;;;;;;;;;;;7.60;99.90;;;;;;5019458;28;19917;-69
2024/01/04 08:34:12;;;;;;;;;;;7.60;99.90;;;;;;5004819;28;19914;-69
2024/01/04 08:36:38;;;;;;;;;;;7.60;99.90;;;;;;5023023;28;19939;-69
2024/01/04 08:39:04;;;;;;;;;;;7.60;99.90;;;;;;5033950;28;20011;-69
2024/01/04 08:41:29;;;;;;;;;;;7.60;99.90;;;;;;5009415;28;19920;-69
2024/01/04 08:43:56;;;;;;;;;;;7.60;99.90;;;;;;5021269;28;19944;-69
2024/01/04 08:46:21;;;;;;;;;;;7.60;99.90;;;;;;5021883;28;19928;-69
2024/01/04 08:48:47;;;;;;;;;;;7.60;99.90;;;;;;5029937;28;19917;-69
2024/01/04 08:51:13;;;;;;;;;;;7.60;99.90;;;;;;5029699;28;19917;-69
2024/01/04 08:53:38;;;;;;;;;;;7.60;99.90;;;;;;5021960;28;19920;-69
2024/01/04 08:56:08;;;;;;;;;;;7.60;99.90;;;;;;5021512;28;19920;-69
2024/01/04 08:58:34;;;;;;;;;;;7.60;99.90;;;;;;5036056;28;19913;-69
2024/01/04 09:01:00;;;;;;;;;;;7.60;99.90;;;;;;5023111;28;19924;-69
2024/01/04 09:03:25;;;;;;;;;;;7.60;99.90;;;;;;5044990;28;19916;-69
2024/01/04 09:05:51;;;;;;;;;;;7.60;99.90;;;;;;5021576;28;20305;-69
2024/01/04 09:08:16;;;;;;;;;;;7.60;99.90;;;;;;5025884;28;19909;-69
2024/01/04 09:10:42;;;;;;;;;;;7.60;99.90;;;;;;5010687;28;19974;-69
2024/01/04 09:13:07;;;;;;;;;;;7.60;99.90;;;;;;5021332;28;19957;-69
2024/01/04 09:15:33;;;;;;;;;;;7.60;99.90;;;;;;5024960;28;20671;-69
2024/01/04 09:17:59;;;;;;;;;;;7.60;99.90;;;;;;5022855;28;19913;-69
2024/01/04 09:20:24;;;;;;;;;;;7.60;99.90;;;;;;5026092;28;19912;-69
2024/01/04 09:22:50;;;;;;;;;;;7.60;99.90;;;;;;5024586;28;19966;-69
2024/01/04 09:25:15;;;;;;;;;;;7.60;99.90;;;;;;5021656;28;19917;-69
2024/01/04 09:27:41;;;;;;;;;;;7.60;99.90;;;;;;5021424;28;19913;-69
2024/01/04 09:30:07;;;;;;;;;;;7.70;99.90;;;;;;5027656;28;20365;-69
2024/01/04 09:32:32;;;;;;;;;;;7.70;99.90;;;;;;5020103;28;20012;-69
2024/01/04 09:34:58;;;;;;;;;;;7.70;99.90;;;;;;5029201;28;19909;-69
2024/01/04 09:37:23;;;;;;;;;;;7.60;99.90;;;;;;5020863;28;19920;-69
2024/01/04 09:39:49;;;;;;;;;;;7.70;99.90;;;;;;5021253;28;19920;-69
2024/01/04 09:42:16;;;;;;;;;;;7.70;99.90;;;;;;5013092;28;19914;-69
2024/01/04 09:44:43;;;;;;;;;;;7.70;99.90;;;;;;5021272;28;20327;-69
2024/01/04 09:47:09;;;;;;;;;;;7.70;99.90;;;;;;5028713;28;19909;-69
2024/01/04 09:49:35;;;;;;;;;;;7.70;99.90;;;;;;5021138;28;19913;-69
2024/01/04 09:52:01;;;;;;;;;;;7.70;99.90;;;;;;5022188;28;20011;-69
2024/01/04 09:54:27;;;;;;;;;;;7.70;99.90;;;;;;5032571;28;19992;-69
2024/01/04 09:56:54;;;;;;;;;;;7.70;99.90;;;;;;5031768;28;19925;-69
2024/01/04 09:59:20;;;;;;;;;;;7.80;99.90;;;;;;5020928;28;19994;-69
2024/01/04 10:01:45;;;;;;;;;;;7.70;99.90;;;;;;5028737;28;20470;-69
2024/01/04 10:04:12;;;;;;;;;;;7.80;99.90;;;;;;5020548;28;19978;-69
2024/01/04 10:06:39;;;;;;;;;;;7.80;99.90;;;;;;5020777;28;19913;-69
2024/01/04 10:09:07;;;;;;;;;;;7.80;99.90;;;;;;5026917;28;19917;-69
2024/01/04 10:11:37;;;;;;;;;;;7.80;99.90;;;;;;5035355;28;19978;-69
2024/01/04 10:14:03;;;;;;;;;;;7.80;99.90;;;;;;5002516;28;19913;-69
2024/01/04 10:16:29;;;;;;;;;;;7.80;99.90;;;;;;5020422;28;19913;-69
2024/01/04 10:18:58;;;;;;;;;;;7.80;99.90;;;;;;5020051;28;19920;-69
2024/01/04 10:21:30;;;;;;;;;;;7.90;99.90;;;;;;5020205;28;19913;-69
2024/01/04 10:23:58;;;;;;;;;;;7.90;99.90;;;;;;5028300;28;19954;-69
2024/01/04 10:26:25;;;;;;;;;;;7.90;99.90;;;;;;5020772;28;20394;-69
2024/01/04 10:28:54;;;;;;;;;;;7.90;99.90;;;;;;5028174;28;19924;-69
2024/01/04 10:31:20;;;;;;;;;;;7.90;99.90;;;;;;5020063;28;19928;-69
2024/01/04 10:33:46;;;;;;;;;;;7.90;99.90;;;;;;5020038;28;19909;-69
2024/01/04 10:36:12;;;;;;;;;;;7.90;99.90;;;;;;5001831;28;20055;-69
2024/01/04 10:38:38;;;;;;;;;;;7.90;99.90;;;;;;5026940;28;19913;-69
2024/01/04 10:41:04;;;;;;;;;;;7.90;99.90;;;;;;5025981;28;20598;-69
2024/01/04 10:43:30;;;;;;;;;;;7.90;99.90;;;;;;5024714;28;19948;-69
2024/01/04 10:46:05;;;;;;;;;;;7.90;99.90;;;;;;5003900;28;19996;-69
2024/01/04 10:48:31;;;;;;;;;;;7.90;99.90;;;;;;5027478;28;19958;-69
2024/01/04 10:50:57;;;;;;;;;;;7.90;99.90;;;;;;5028502;28;19916;-69
2024/01/04 10:53:24;;;;;;;;;;;7.90;99.90;;;;;;5022232;28;19918;-69
2024/01/04 10:55:50;;;;;;;;;;;8.00;99.90;;;;;;5023121;28;20429;-69
2024/01/04 10:58:16;;;;;;;;;;;8.00;99.90;;;;;;5015023;28;19913;-69
2024/01/04 11:00:42;;;;;;;;;;;8.00;99.90;;;;;;5022800;28;19916;-69
2024/01/04 11:03:09;;;;;;;;;;;8.00;99.90;;;;;;5038408;27;19913;-69
2024/01/04 11:05:36;;;;;;;;;;;8.10;99.90;;;;;;5023927;28;19921;-69
2024/01/04 11:08:02;;;;;;;;;;;8.00;99.90;;;;;;5023167;28;20000;-69
2024/01/04 11:10:28;;;;;;;;;;;8.10;99.90;;;;;;5023121;28;19913;-69
2024/01/04 11:12:55;;;;;;;;;;;8.10;99.90;;;;;;5016518;28;19921;-69
2024/01/04 11:15:20;;;;;;;;;;;8.10;99.90;;;;;;5038623;28;19913;-69
2024/01/04 11:18:05;;;;;;;;;;;8.10;99.90;;;;;;5027914;28;19923;-69
2024/01/04 11:20:30;;;;;;;;;;;8.10;99.90;;;;;;5025295;28;19921;-69
2024/01/04 11:23:08;;;;;;;;;;;8.10;99.90;;;;;;5031201;28;19917;-69
2024/01/04 11:25:43;;;;;;;;;;;8.10;99.90;;;;;;5031340;28;19913;-69
2024/01/04 11:28:10;;;;;;;;;;;8.10;99.90;;;;;;5023035;28;19913;-69
2024/01/04 11:30:36;;;;;;;;;;;8.10;99.90;;;;;;5018645;28;20685;-69
2024/01/04 11:33:03;;;;;;;;;;;8.10;99.90;;;;;;5031214;28;19921;-69
2024/01/04 11:35:32;;;;;;;;;;;8.10;99.90;;;;;;5023155;28;20389;-69
2024/01/04 11:38:04;;;;;;;;;;;8.10;99.90;;;;;;5039984;28;19961;-69
2024/01/04 11:40:30;;;;;;;;;;;8.10;99.90;;;;;;5027266;28;19920;-69
2024/01/04 11:42:56;;;;;;;;;;;8.10;99.90;;;;;;5030712;28;19913;-69
2024/01/04 11:45:23;;;;;;;;;;;8.10;99.90;;;;;;5022818;28;20346;-69
2024/01/04 11:47:50;;;;;;;;;;;8.10;99.90;;;;;;5022731;28;19913;-69
2024/01/04 11:50:26;;;;;;;;;;;8.10;99.90;;;;;;5022339;28;20463;-69
2024/01/04 11:53:02;;;;;;;;;;;8.10;99.90;;;;;;5037642;27;20469;-69
2024/01/04 11:55:29;;;;;;;;;;;8.10;99.90;;;;;;5021021;28;19959;-69
2024/01/04 11:58:04;;;;;;;;;;;8.10;99.90;;;;;;5033991;28;19956;-69
2024/01/04 12:00:33;;;;;;;;;;;8.10;99.90;;;;;;5028225;28;19913;-69
2024/01/04 12:03:00;;;;;;;;;;;8.20;99.90;;;;;;5030829;28;19944;-69
2024/01/04 12:05:27;;;;;;;;;;;8.20;99.90;;;;;;5022812;28;20077;-69
2024/01/04 12:07:53;;;;;;;;;;;8.20;99.90;;;;;;5022452;28;19934;-69
2024/01/04 12:10:18;;;;;;;;;;;8.20;99.90;;;;;;5022212;28;19913;-69
2024/01/04 12:12:44;;;;;;;;;;;8.20;99.90;;;;;;5022456;28;20539;-69
2024/01/04 12:15:09;;;;;;;;;;;8.20;99.90;;;;;;5032851;28;19920;-69
2024/01/04 12:17:35;;;;;;;;;;;8.20;99.90;;;;;;5031649;28;19917;-69
2024/01/04 12:20:00;;;;;;;;;;;8.30;99.90;;;;;;5030551;28;19948;-70
2024/01/04 12:22:26;;;;;;;;;;;8.20;99.90;;;;;;5022664;28;19981;-69
2024/01/04 12:24:52;;;;;;;;;;;8.20;99.90;;;;;;5022230;28;20012;-69
2024/01/04 12:27:18;;;;;;;;;;;8.30;99.90;;;;;;4997058;28;20444;-69
2024/01/04 12:29:44;;;;;;;;;;;8.30;99.90;;;;;;5030556;28;19949;-69
2024/01/04 12:32:09;;;;;;;;;;;8.30;99.90;;;;;;5016118;28;19917;-69
2024/01/04 12:34:35;;;;;;;;;;;8.30;99.90;;;;;;5028987;28;19973;-69
2024/01/04 12:37:06;;;;;;;;;;;8.30;99.90;;;;;;5029452;28;19913;-69
2024/01/04 12:39:32;;;;;;;;;;;8.30;99.90;;;;;;5029087;28;19926;-69
2024/01/04 12:41:58;;;;;;;;;;;8.30;99.90;;;;;;5022303;28;20393;-69
2024/01/04 12:44:24;;;;;;;;;;;8.40;99.90;;;;;;5022545;28;20016;-69
2024/01/04 12:46:49;;;;;;;;;;;8.40;99.90;;;;;;5022402;28;19925;-69
2024/01/04 12:49:15;;;;;;;;;;;8.40;99.90;;;;;;5030613;28;20277;-69
2024/01/04 12:51:42;;;;;;;;;;;8.40;99.90;;;;;;5004787;28;20585;-70
2024/01/04 12:54:08;;;;;;;;;;;8.30;99.90;;;;;;5022255;28;19909;-69
2024/01/04 12:56:35;;;;;;;;;;;8.30;99.90;;;;;;5028121;28;19939;-69
2024/01/04 12:59:02;;;;;;;;;;;8.40;99.90;;;;;;5032488;28;19924;-69
2024/01/04 13:01:28;;;;;;;;;;;8.30;99.90;;;;;;5026617;28;19920;-69
2024/01/04 13:03:55;;;;;;;;;;;8.30;99.90;;;;;;5025001;28;19913;-69
2024/01/04 13:06:20;;;;;;;;;;;8.30;99.90;;;;;;5022493;28;20362;-69
2024/01/04 13:08:46;;;;;;;;;;;8.30;99.90;;;;;;5037291;27;19917;-70
2024/01/04 13:11:11;;;;;;;;;;;8.30;99.90;;;;;;5039316;27;19933;-69
2024/01/04 13:13:37;;;;;;;;;;;8.20;99.90;;;;;;5027941;28;20315;-70
2024/01/04 13:16:04;;;;;;;;;;;8.30;99.90;;;;;;5023058;28;19913;-70
2024/01/04 13:18:30;;;;;;;;;;;8.30;99.90;;;;;;5035088;28;19912;-70
2024/01/04 13:20:55;;;;;;;;;;;8.30;99.90;;;;;;5024654;28;19916;-70
2024/01/04 13:23:21;;;;;;;;;;;8.30;99.90;;;;;;5022168;28;20000;-70
2024/01/04 13:25:46;;;;;;;;;;;8.30;99.90;;;;;;5030288;28;20507;-70
2024/01/04 13:28:12;;;;;;;;;;;8.40;99.90;;;;;;5029821;28;20334;-70
2024/01/04 13:30:37;;;;;;;;;;;8.30;99.90;;;;;;5027701;28;19981;-69
2024/01/04 13:33:05;;;;;;;;;;;8.30;99.90;;;;;;5003169;28;20433;-70
2024/01/04 13:35:30;;;;;;;;;;;8.30;99.90;;;;;;5021957;28;19975;-70
2024/01/04 13:37:56;;;;;;;;;;;8.40;99.90;;;;;;5030149;28;19915;-70
2024/01/04 13:40:21;;;;;;;;;;;8.30;99.90;;;;;;5019282;28;20038;-70
2024/01/04 13:42:47;;;;;;;;;;;8.30;99.90;;;;;;5021900;28;19913;-70
2024/01/04 13:45:12;;;;;;;;;;;8.30;99.90;;;;;;5021456;28;19967;-70
2024/01/04 13:47:38;;;;;;;;;;;8.30;99.90;;;;;;5024804;28;19921;-70
2024/01/04 13:50:04;;;;;;;;;;;8.30;99.90;;;;;;5044568;28;19913;-70
2024/01/04 13:52:29;;;;;;;;;;;8.30;99.90;;;;;;5012306;28;20608;-70
2024/01/04 13:54:55;;;;;;;;;;;8.30;99.90;;;;;;5021999;28;20366;-70
2024/01/04 13:57:20;;;;;;;;;;;8.30;99.90;;;;;;5021901;28;20274;-70
2024/01/04 13:59:46;;;;;;;;;;;8.40;99.90;;;;;;5010274;28;20341;-70
2024/01/04 14:02:11;;;;;;;;;;;8.30;99.90;;;;;;5037550;28;19956;-70
2024/01/04 14:04:37;;;;;;;;;;;8.40;99.90;;;;;;5021711;28;19919;-70
2024/01/04 14:07:03;;;;;;;;;;;8.30;99.90;;;;;;5021191;28;19914;-70
2024/01/04 14:09:28;;;;;;;;;;;8.30;99.90;;;;;;5045038;27;19920;-70
2024/01/04 14:11:55;;;;;;;;;;;8.30;99.90;;;;;;5029445;28;19916;-70
2024/01/04 14:14:20;;;;;;;;;;;8.30;99.90;;;;;;5037987;28;19924;-70
2024/01/04 14:16:46;;;;;;;;;;;8.30;99.90;;;;;;5021525;28;19917;-70
2024/01/04 14:19:11;;;;;;;;;;;8.30;99.90;;;;;;5021091;28;20534;-70
2024/01/04 14:21:37;;;;;;;;;;;8.30;99.90;;;;;;5027288;28;20392;-70
2024/01/04 14:24:03;;;;;;;;;;;8.30;99.90;;;;;;5032319;28;19913;-70